Aviation Digital Data Service (ADDS)

Output produced by METARs form (1100 UTC 30 April 2017)
found at http://www.aviationweather.gov/adds/metars/
 
LZKZ 301030Z 02014KT 9999 SCT036 SCT055 11/03 Q1019 NOSIG
TAF LZKZ 301100Z 3012/0112 02009KT 9999 SCT040 BKN080 
     TEMPO 3012/3014 04015KT 
     BECMG 3016/3018 CAVOK 
     BECMG 0106/0108 03006KT
       
LZIB 301030Z VRB04KT 9999 BKN048 14/03 Q1019 NOSIG
TAF LZIB 301100Z 3012/0112 11007KT CAVOK 
     TEMPO 3012/3016 13010KT 9999 SCT040 
     BECMG 0106/0108 12013KT 
     TEMPO 0108/0110 13015G25KT
       
TAF LZMC 301030Z 3012/3021 10004KT CAVOK 
     TEMPO 3012/3018 9999 SCT040 BKN080
       
LZPP 301030Z VRB02KT 9999 FEW030 SCT080 13/04 Q1019
TAF LZPP 301100Z 3012/3021 14006KT 9999 SCT035 
     BECMG 3019/3021 CAVOK
       
LZSL 301030Z VRB03KT 9999 SCT040 15/00 Q1019
TAF LZSL 301100Z 3012/3021 VRB02KT 9999 SCT043 
     PROB40 
     TEMPO 3012/3017 16006KT -SHRA BKN035
       
LZTT 301030Z 06011KT 9999 FEW030 SCT053 09/02 Q1019 NOSIG
TAF LZTT 301100Z 3012/0112 07008KT 9999 FEW035 SCT060 
     PROB40 
     TEMPO 3012/3017 06012KT -SHRA BKN040 
     BECMG 3018/3020 27005KT CAVOK 
     BECMG 0108/0110 08006KT
       
LZZI 301030Z 10005KT 060V150 9999 SCT042 BKN085 12/02 Q1019
TAF LZZI 301100Z 3012/3021 07005KT 9999 SCT045 
     PROB40 
     TEMPO 3012/3016 -SHRA BKN040